sensor_id;sensor_type;location;lat;lon;timestamp;temperature;humidity
17178;DHT22;8704;52.006;4.374;2023-05-14T00:00:58;12.70;1.00
17178;DHT22;8704;52.006;4.374;2023-05-14T00:03:26;12.70;1.00
17178;DHT22;8704;52.006;4.374;2023-05-14T00:05:54;12.60;1.00
17178;DHT22;8704;52.006;4.374;2023-05-14T00:08:22;12.60;1.00
17178;DHT22;8704;52.006;4.374;2023-05-14T00:10:50;12.70;1.00
17178;DHT22;8704;52.006;4.374;2023-05-14T00:13:19;12.70;1.00
17178;DHT22;8704;52.006;4.374;2023-05-14T00:15:48;12.50;1.00
17178;DHT22;8704;52.006;4.374;2023-05-14T00:18:16;12.50;1.00
17178;DHT22;8704;52.006;4.374;2023-05-14T00:20:44;12.60;1.00
17178;DHT22;8704;52.006;4.374;2023-05-14T00:23:12;12.50;1.00
17178;DHT22;8704;52.006;4.374;2023-05-14T00:25:39;12.50;1.00
17178;DHT22;8704;52.006;4.374;2023-05-14T00:28:07;12.40;1.00
17178;DHT22;8704;52.006;4.374;2023-05-14T00:30:35;12.40;1.00
17178;DHT22;8704;52.006;4.374;2023-05-14T00:33:05;12.40;1.00
17178;DHT22;8704;52.006;4.374;2023-05-14T00:35:33;12.40;1.00
17178;DHT22;8704;52.006;4.374;2023-05-14T00:38:02;12.30;1.00
17178;DHT22;8704;52.006;4.374;2023-05-14T00:40:30;12.30;1.00
17178;DHT22;8704;52.006;4.374;2023-05-14T00:42:58;12.30;1.00
17178;DHT22;8704;52.006;4.374;2023-05-14T00:45:26;12.30;1.00
17178;DHT22;8704;52.006;4.374;2023-05-14T00:47:54;12.30;1.00
17178;DHT22;8704;52.006;4.374;2023-05-14T00:50:24;12.20;1.00
17178;DHT22;8704;52.006;4.374;2023-05-14T00:52:52;12.20;1.00
17178;DHT22;8704;52.006;4.374;2023-05-14T00:55:20;12.20;1.00
17178;DHT22;8704;52.006;4.374;2023-05-14T00:57:50;12.20;1.00
17178;DHT22;8704;52.006;4.374;2023-05-14T01:00:19;12.20;1.00
17178;DHT22;8704;52.006;4.374;2023-05-14T01:02:47;12.20;1.00
17178;DHT22;8704;52.006;4.374;2023-05-14T01:05:15;12.10;1.00
17178;DHT22;8704;52.006;4.374;2023-05-14T01:07:55;12.10;1.00
17178;DHT22;8704;52.006;4.374;2023-05-14T01:10:29;12.20;18.60
17178;DHT22;8704;52.006;4.374;2023-05-14T01:13:03;12.50;44.20
17178;DHT22;8704;52.006;4.374;2023-05-14T01:15:36;12.10;29.10
17178;DHT22;8704;52.006;4.374;2023-05-14T01:18:07;12.10;26.60
17178;DHT22;8704;52.006;4.374;2023-05-14T01:20:36;12.00;23.00
17178;DHT22;8704;52.006;4.374;2023-05-14T01:23:05;12.00;42.60
17178;DHT22;8704;52.006;4.374;2023-05-14T01:25:33;12.00;70.00
17178;DHT22;8704;52.006;4.374;2023-05-14T01:28:08;12.00;92.70
17178;DHT22;8704;52.006;4.374;2023-05-14T01:30:42;12.00;99.90
17178;DHT22;8704;52.006;4.374;2023-05-14T01:33:13;12.00;99.90
17178;DHT22;8704;52.006;4.374;2023-05-14T01:35:43;12.00;99.90
17178;DHT22;8704;52.006;4.374;2023-05-14T01:38:15;12.00;99.90
17178;DHT22;8704;52.006;4.374;2023-05-14T01:40:45;11.90;99.90
17178;DHT22;8704;52.006;4.374;2023-05-14T01:43:14;11.90;99.90
17178;DHT22;8704;52.006;4.374;2023-05-14T01:45:42;11.90;96.90
17178;DHT22;8704;52.006;4.374;2023-05-14T01:48:11;11.80;99.10
17178;DHT22;8704;52.006;4.374;2023-05-14T01:50:39;11.80;99.20
17178;DHT22;8704;52.006;4.374;2023-05-14T01:53:07;12.20;99.30
17178;DHT22;8704;52.006;4.374;2023-05-14T01:55:36;11.80;97.70
17178;DHT22;8704;52.006;4.374;2023-05-14T01:58:04;11.80;99.90
17178;DHT22;8704;52.006;4.374;2023-05-14T02:00:32;11.80;99.90
17178;DHT22;8704;52.006;4.374;2023-05-14T02:03:00;11.70;99.90
17178;DHT22;8704;52.006;4.374;2023-05-14T02:05:29;11.70;99.90
17178;DHT22;8704;52.006;4.374;2023-05-14T02:07:57;11.70;93.60
17178;DHT22;8704;52.006;4.374;2023-05-14T02:10:24;11.70;85.20
17178;DHT22;8704;52.006;4.374;2023-05-14T02:12:55;11.70;90.40
17178;DHT22;8704;52.006;4.374;2023-05-14T02:15:23;11.60;94.30
17178;DHT22;8704;52.006;4.374;2023-05-14T02:17:51;11.60;99.90
17178;DHT22;8704;52.006;4.374;2023-05-14T02:20:19;11.60;99.90
17178;DHT22;8704;52.006;4.374;2023-05-14T02:22:47;11.60;99.90
17178;DHT22;8704;52.006;4.374;2023-05-14T02:25:15;11.60;99.90
17178;DHT22;8704;52.006;4.374;2023-05-14T02:27:43;11.60;99.90
17178;DHT22;8704;52.006;4.374;2023-05-14T02:30:12;11.50;99.90
17178;DHT22;8704;52.006;4.374;2023-05-14T02:32:40;11.50;99.90
17178;DHT22;8704;52.006;4.374;2023-05-14T02:35:08;12.00;99.90
17178;DHT22;8704;52.006;4.374;2023-05-14T02:37:36;11.50;99.90
17178;DHT22;8704;52.006;4.374;2023-05-14T02:40:05;11.50;99.90
17178;DHT22;8704;52.006;4.374;2023-05-14T02:42:33;11.40;99.90
17178;DHT22;8704;52.006;4.374;2023-05-14T02:45:01;11.40;99.90
17178;DHT22;8704;52.006;4.374;2023-05-14T02:47:31;11.50;99.90
17178;DHT22;8704;52.006;4.374;2023-05-14T02:50:01;11.40;99.90
17178;DHT22;8704;52.006;4.374;2023-05-14T02:52:30;11.40;99.90
17178;DHT22;8704;52.006;4.374;2023-05-14T02:54:58;11.50;99.90
17178;DHT22;8704;52.006;4.374;2023-05-14T02:57:26;11.40;99.90
17178;DHT22;8704;52.006;4.374;2023-05-14T02:59:54;11.40;99.90
17178;DHT22;8704;52.006;4.374;2023-05-14T03:02:22;11.40;99.90
17178;DHT22;8704;52.006;4.374;2023-05-14T03:04:52;11.50;99.90
17178;DHT22;8704;52.006;4.374;2023-05-14T03:07:20;11.30;99.90
17178;DHT22;8704;52.006;4.374;2023-05-14T03:09:47;10.60;99.90
17178;DHT22;8704;52.006;4.374;2023-05-14T03:12:15;11.40;99.90
17178;DHT22;8704;52.006;4.374;2023-05-14T03:14:43;11.60;99.90
17178;DHT22;8704;52.006;4.374;2023-05-14T03:17:11;11.40;99.90
17178;DHT22;8704;52.006;4.374;2023-05-14T03:19:39;11.60;99.90
17178;DHT22;8704;52.006;4.374;2023-05-14T03:22:08;11.30;99.90
17178;DHT22;8704;52.006;4.374;2023-05-14T03:24:37;11.30;99.90
17178;DHT22;8704;52.006;4.374;2023-05-14T03:27:05;11.70;99.90
17178;DHT22;8704;52.006;4.374;2023-05-14T03:29:33;11.30;99.90
17178;DHT22;8704;52.006;4.374;2023-05-14T03:32:01;11.50;99.90
17178;DHT22;8704;52.006;4.374;2023-05-14T03:34:29;11.30;99.90
17178;DHT22;8704;52.006;4.374;2023-05-14T03:36:57;11.30;99.90
17178;DHT22;8704;52.006;4.374;2023-05-14T03:39:26;11.30;99.90
17178;DHT22;8704;52.006;4.374;2023-05-14T03:41:54;11.30;99.90
17178;DHT22;8704;52.006;4.374;2023-05-14T03:44:24;11.30;99.90
17178;DHT22;8704;52.006;4.374;2023-05-14T03:46:52;11.30;99.90
17178;DHT22;8704;52.006;4.374;2023-05-14T03:49:20;11.30;99.90
17178;DHT22;8704;52.006;4.374;2023-05-14T03:51:48;11.30;99.90
17178;DHT22;8704;52.006;4.374;2023-05-14T03:54:16;11.20;99.90
17178;DHT22;8704;52.006;4.374;2023-05-14T03:56:45;11.20;99.90
17178;DHT22;8704;52.006;4.374;2023-05-14T03:59:13;12.60;99.90
17178;DHT22;8704;52.006;4.374;2023-05-14T04:01:41;11.20;99.90
17178;DHT22;8704;52.006;4.374;2023-05-14T04:04:09;11.10;99.90
17178;DHT22;8704;52.006;4.374;2023-05-14T04:06:38;11.20;99.90
17178;DHT22;8704;52.006;4.374;2023-05-14T04:09:06;11.10;99.90
17178;DHT22;8704;52.006;4.374;2023-05-14T04:11:34;11.20;99.90
17178;DHT22;8704;52.006;4.374;2023-05-14T04:14:03;11.10;99.90
17178;DHT22;8704;52.006;4.374;2023-05-14T04:16:31;11.10;99.90
17178;DHT22;8704;52.006;4.374;2023-05-14T04:19:01;11.10;99.90
17178;DHT22;8704;52.006;4.374;2023-05-14T04:21:29;11.10;99.90
17178;DHT22;8704;52.006;4.374;2023-05-14T04:23:57;11.10;99.90
17178;DHT22;8704;52.006;4.374;2023-05-14T04:26:25;11.40;99.90
17178;DHT22;8704;52.006;4.374;2023-05-14T04:28:53;11.10;99.90
17178;DHT22;8704;52.006;4.374;2023-05-14T04:31:22;11.10;99.90
17178;DHT22;8704;52.006;4.374;2023-05-14T04:33:50;11.10;99.90
17178;DHT22;8704;52.006;4.374;2023-05-14T04:36:18;11.10;99.90
17178;DHT22;8704;52.006;4.374;2023-05-14T04:38:46;11.10;99.90
17178;DHT22;8704;52.006;4.374;2023-05-14T04:41:14;11.10;99.90
17178;DHT22;8704;52.006;4.374;2023-05-14T04:43:42;11.10;99.90
17178;DHT22;8704;52.006;4.374;2023-05-14T04:46:10;11.20;99.90
17178;DHT22;8704;52.006;4.374;2023-05-14T04:48:39;11.10;99.90
17178;DHT22;8704;52.006;4.374;2023-05-14T04:51:07;11.10;99.90
17178;DHT22;8704;52.006;4.374;2023-05-14T04:53:35;11.20;99.90
17178;DHT22;8704;52.006;4.374;2023-05-14T04:56:03;11.20;99.90
17178;DHT22;8704;52.006;4.374;2023-05-14T04:58:31;11.20;99.90
17178;DHT22;8704;52.006;4.374;2023-05-14T05:01:01;11.30;99.90
17178;DHT22;8704;52.006;4.374;2023-05-14T05:03:30;11.30;1.00
17178;DHT22;8704;52.006;4.374;2023-05-14T05:06:00;11.30;1.00
17178;DHT22;8704;52.006;4.374;2023-05-14T05:08:28;11.30;1.00
17178;DHT22;8704;52.006;4.374;2023-05-14T05:10:56;11.30;1.00
17178;DHT22;8704;52.006;4.374;2023-05-14T05:13:24;11.30;1.00
17178;DHT22;8704;52.006;4.374;2023-05-14T05:15:51;11.30;1.00
17178;DHT22;8704;52.006;4.374;2023-05-14T05:18:19;11.40;1.00
17178;DHT22;8704;52.006;4.374;2023-05-14T05:20:47;11.40;1.00
17178;DHT22;8704;52.006;4.374;2023-05-14T05:23:16;11.40;99.90
17178;DHT22;8704;52.006;4.374;2023-05-14T05:25:44;11.40;99.90
17178;DHT22;8704;52.006;4.374;2023-05-14T05:28:12;11.40;99.90
17178;DHT22;8704;52.006;4.374;2023-05-14T05:30:40;11.50;99.90
17178;DHT22;8704;52.006;4.374;2023-05-14T05:33:10;11.50;99.90
17178;DHT22;8704;52.006;4.374;2023-05-14T05:35:38;11.70;99.90
17178;DHT22;8704;52.006;4.374;2023-05-14T05:38:07;11.60;99.90
17178;DHT22;8704;52.006;4.374;2023-05-14T05:40:36;11.60;1.00
17178;DHT22;8704;52.006;4.374;2023-05-14T05:43:04;11.60;1.00
17178;DHT22;8704;52.006;4.374;2023-05-14T05:45:32;12.00;99.90
17178;DHT22;8704;52.006;4.374;2023-05-14T05:48:00;11.70;99.90
17178;DHT22;8704;52.006;4.374;2023-05-14T05:50:29;11.60;99.90
17178;DHT22;8704;52.006;4.374;2023-05-14T05:52:57;11.70;99.90
17178;DHT22;8704;52.006;4.374;2023-05-14T05:55:25;11.70;99.90
17178;DHT22;8704;52.006;4.374;2023-05-14T05:57:54;11.80;99.90
17178;DHT22;8704;52.006;4.374;2023-05-14T06:00:22;11.80;99.90
17178;DHT22;8704;52.006;4.374;2023-05-14T06:02:51;11.80;99.90
17178;DHT22;8704;52.006;4.374;2023-05-14T06:05:19;11.90;99.90
17178;DHT22;8704;52.006;4.374;2023-05-14T06:07:47;11.80;99.90
17178;DHT22;8704;52.006;4.374;2023-05-14T06:10:14;11.80;99.90
17178;DHT22;8704;52.006;4.374;2023-05-14T06:12:42;11.80;99.90
17178;DHT22;8704;52.006;4.374;2023-05-14T06:15:12;11.80;99.90
17178;DHT22;8704;52.006;4.374;2023-05-14T06:17:40;12.00;99.90
17178;DHT22;8704;52.006;4.374;2023-05-14T06:20:08;12.00;99.90
17178;DHT22;8704;52.006;4.374;2023-05-14T06:22:36;12.00;99.90
17178;DHT22;8704;52.006;4.374;2023-05-14T06:25:05;12.10;99.90
17178;DHT22;8704;52.006;4.374;2023-05-14T06:27:33;12.20;99.90
17178;DHT22;8704;52.006;4.374;2023-05-14T06:30:01;12.30;99.90
17178;DHT22;8704;52.006;4.374;2023-05-14T06:32:30;12.30;99.90
17178;DHT22;8704;52.006;4.374;2023-05-14T06:34:59;12.40;99.90
17178;DHT22;8704;52.006;4.374;2023-05-14T06:37:27;12.50;99.90
17178;DHT22;8704;52.006;4.374;2023-05-14T06:39:55;12.50;99.90
17178;DHT22;8704;52.006;4.374;2023-05-14T06:42:23;12.50;99.90
17178;DHT22;8704;52.006;4.374;2023-05-14T06:44:52;12.50;99.90
17178;DHT22;8704;52.006;4.374;2023-05-14T06:47:20;12.50;99.90
17178;DHT22;8704;52.006;4.374;2023-05-14T06:49:49;12.60;99.90
17178;DHT22;8704;52.006;4.374;2023-05-14T06:52:17;12.70;99.90
17178;DHT22;8704;52.006;4.374;2023-05-14T06:54:45;12.80;99.90
17178;DHT22;8704;52.006;4.374;2023-05-14T06:57:13;12.90;99.90
17178;DHT22;8704;52.006;4.374;2023-05-14T06:59:41;12.80;99.90
17178;DHT22;8704;52.006;4.374;2023-05-14T07:02:09;12.90;99.90
17178;DHT22;8704;52.006;4.374;2023-05-14T07:04:37;13.00;99.90
17178;DHT22;8704;52.006;4.374;2023-05-14T07:07:07;13.10;99.90
17178;DHT22;8704;52.006;4.374;2023-05-14T07:09:36;13.00;99.90
17178;DHT22;8704;52.006;4.374;2023-05-14T07:12:05;13.50;99.90
17178;DHT22;8704;52.006;4.374;2023-05-14T07:14:33;13.10;99.90
17178;DHT22;8704;52.006;4.374;2023-05-14T07:17:01;13.10;99.90
17178;DHT22;8704;52.006;4.374;2023-05-14T07:19:29;13.30;99.90
17178;DHT22;8704;52.006;4.374;2023-05-14T07:21:56;13.20;99.90
17178;DHT22;8704;52.006;4.374;2023-05-14T07:24:26;13.30;99.90
17178;DHT22;8704;52.006;4.374;2023-05-14T07:26:54;13.40;99.90
17178;DHT22;8704;52.006;4.374;2023-05-14T07:29:22;13.50;67.40
17178;DHT22;8704;52.006;4.374;2023-05-14T07:31:51;13.50;1.00
17178;DHT22;8704;52.006;4.374;2023-05-14T07:34:19;13.60;1.00
17178;DHT22;8704;52.006;4.374;2023-05-14T07:36:47;13.60;1.00
17178;DHT22;8704;52.006;4.374;2023-05-14T07:39:15;13.70;1.00
17178;DHT22;8704;52.006;4.374;2023-05-14T07:41:44;13.60;1.00
17178;DHT22;8704;52.006;4.374;2023-05-14T07:44:12;13.50;1.00
17178;DHT22;8704;52.006;4.374;2023-05-14T07:46:40;13.60;1.00
17178;DHT22;8704;52.006;4.374;2023-05-14T07:49:08;13.70;1.00
17178;DHT22;8704;52.006;4.374;2023-05-14T07:51:36;13.90;1.00
17178;DHT22;8704;52.006;4.374;2023-05-14T07:54:04;13.80;1.00
17178;DHT22;8704;52.006;4.374;2023-05-14T07:56:32;13.90;1.00
17178;DHT22;8704;52.006;4.374;2023-05-14T07:59:01;13.90;1.00
17178;DHT22;8704;52.006;4.374;2023-05-14T08:01:29;13.90;1.00
17178;DHT22;8704;52.006;4.374;2023-05-14T08:03:57;14.00;1.00
17178;DHT22;8704;52.006;4.374;2023-05-14T08:06:26;14.10;1.00
17178;DHT22;8704;52.006;4.374;2023-05-14T08:08:55;14.20;1.00
17178;DHT22;8704;52.006;4.374;2023-05-14T08:11:23;14.20;1.00
17178;DHT22;8704;52.006;4.374;2023-05-14T08:13:51;14.30;1.00
17178;DHT22;8704;52.006;4.374;2023-05-14T08:16:20;14.20;1.00
17178;DHT22;8704;52.006;4.374;2023-05-14T08:18:49;14.50;1.00
17178;DHT22;8704;52.006;4.374;2023-05-14T08:21:17;14.40;1.00
17178;DHT22;8704;52.006;4.374;2023-05-14T08:23:45;14.60;1.00
17178;DHT22;8704;52.006;4.374;2023-05-14T08:26:12;14.90;1.00
17178;DHT22;8704;52.006;4.374;2023-05-14T08:28:40;14.60;1.00
17178;DHT22;8704;52.006;4.374;2023-05-14T08:31:08;14.70;1.00
17178;DHT22;8704;52.006;4.374;2023-05-14T08:33:37;14.70;1.00
17178;DHT22;8704;52.006;4.374;2023-05-14T08:36:06;14.60;1.00
17178;DHT22;8704;52.006;4.374;2023-05-14T08:38:34;14.70;1.00
17178;DHT22;8704;52.006;4.374;2023-05-14T08:41:04;14.80;1.00
17178;DHT22;8704;52.006;4.374;2023-05-14T08:43:40;14.80;1.00
17178;DHT22;8704;52.006;4.374;2023-05-14T08:46:12;14.90;1.00
17178;DHT22;8704;52.006;4.374;2023-05-14T08:48:42;14.90;1.00
17178;DHT22;8704;52.006;4.374;2023-05-14T08:51:10;14.80;1.00
17178;DHT22;8704;52.006;4.374;2023-05-14T08:53:38;14.80;1.00
17178;DHT22;8704;52.006;4.374;2023-05-14T08:56:07;14.90;1.00
17178;DHT22;8704;52.006;4.374;2023-05-14T08:58:36;15.00;1.00
17178;DHT22;8704;52.006;4.374;2023-05-14T09:01:04;15.00;1.00
17178;DHT22;8704;52.006;4.374;2023-05-14T09:03:32;15.20;1.00
17178;DHT22;8704;52.006;4.374;2023-05-14T09:06:03;15.30;1.00
17178;DHT22;8704;52.006;4.374;2023-05-14T09:08:32;15.40;1.00
17178;DHT22;8704;52.006;4.374;2023-05-14T09:11:01;15.50;1.00
17178;DHT22;8704;52.006;4.374;2023-05-14T09:13:29;15.50;1.00
17178;DHT22;8704;52.006;4.374;2023-05-14T09:15:57;15.60;1.00
17178;DHT22;8704;52.006;4.374;2023-05-14T09:18:26;15.50;1.00
17178;DHT22;8704;52.006;4.374;2023-05-14T09:20:54;15.50;1.00
17178;DHT22;8704;52.006;4.374;2023-05-14T09:23:25;15.50;1.00
17178;DHT22;8704;52.006;4.374;2023-05-14T09:25:53;15.60;1.00
17178;DHT22;8704;52.006;4.374;2023-05-14T09:28:22;15.90;1.00
17178;DHT22;8704;52.006;4.374;2023-05-14T09:30:54;15.80;1.00
17178;DHT22;8704;52.006;4.374;2023-05-14T09:33:25;15.80;1.00
17178;DHT22;8704;52.006;4.374;2023-05-14T09:35:57;15.70;1.00
17178;DHT22;8704;52.006;4.374;2023-05-14T09:38:31;16.00;1.00
17178;DHT22;8704;52.006;4.374;2023-05-14T09:40:59;16.20;1.00
17178;DHT22;8704;52.006;4.374;2023-05-14T09:43:27;15.90;1.00
17178;DHT22;8704;52.006;4.374;2023-05-14T09:45:55;16.10;1.00
17178;DHT22;8704;52.006;4.374;2023-05-14T09:48:24;16.10;1.00
17178;DHT22;8704;52.006;4.374;2023-05-14T09:50:52;16.30;1.00
17178;DHT22;8704;52.006;4.374;2023-05-14T09:53:20;16.20;1.00
17178;DHT22;8704;52.006;4.374;2023-05-14T09:55:49;16.40;1.00
17178;DHT22;8704;52.006;4.374;2023-05-14T09:58:17;16.60;1.00
17178;DHT22;8704;52.006;4.374;2023-05-14T10:00:45;16.50;1.00
17178;DHT22;8704;52.006;4.374;2023-05-14T10:03:14;16.50;1.00
17178;DHT22;8704;52.006;4.374;2023-05-14T10:05:47;16.60;1.00
17178;DHT22;8704;52.006;4.374;2023-05-14T10:08:23;17.30;1.00
17178;DHT22;8704;52.006;4.374;2023-05-14T10:10:54;16.80;1.00
17178;DHT22;8704;52.006;4.374;2023-05-14T10:13:25;17.00;1.00
17178;DHT22;8704;52.006;4.374;2023-05-14T10:16:00;17.10;1.00
17178;DHT22;8704;52.006;4.374;2023-05-14T10:18:39;17.10;1.00
17178;DHT22;8704;52.006;4.374;2023-05-14T10:21:09;17.00;1.00
17178;DHT22;8704;52.006;4.374;2023-05-14T10:23:38;17.30;1.00
17178;DHT22;8704;52.006;4.374;2023-05-14T10:26:08;17.40;1.00
17178;DHT22;8704;52.006;4.374;2023-05-14T10:28:36;17.40;1.00
17178;DHT22;8704;52.006;4.374;2023-05-14T10:31:04;17.60;1.00
17178;DHT22;8704;52.006;4.374;2023-05-14T10:33:45;17.70;1.00
17178;DHT22;8704;52.006;4.374;2023-05-14T10:36:17;17.70;1.00
17178;DHT22;8704;52.006;4.374;2023-05-14T10:38:45;17.60;1.00
17178;DHT22;8704;52.006;4.374;2023-05-14T10:41:15;17.70;1.00
17178;DHT22;8704;52.006;4.374;2023-05-14T10:43:43;17.70;1.00
17178;DHT22;8704;52.006;4.374;2023-05-14T10:46:12;17.70;1.00
17178;DHT22;8704;52.006;4.374;2023-05-14T10:48:42;17.90;1.00
17178;DHT22;8704;52.006;4.374;2023-05-14T10:51:10;18.20;1.00
17178;DHT22;8704;52.006;4.374;2023-05-14T10:53:40;18.50;1.00
17178;DHT22;8704;52.006;4.374;2023-05-14T10:56:10;18.50;1.00
17178;DHT22;8704;52.006;4.374;2023-05-14T10:58:41;18.50;1.00
17178;DHT22;8704;52.006;4.374;2023-05-14T11:01:11;18.70;1.00
17178;DHT22;8704;52.006;4.374;2023-05-14T11:03:41;18.30;1.00
17178;DHT22;8704;52.006;4.374;2023-05-14T11:06:11;18.60;1.00
17178;DHT22;8704;52.006;4.374;2023-05-14T11:08:40;18.70;1.00
17178;DHT22;8704;52.006;4.374;2023-05-14T11:11:09;18.80;1.00
17178;DHT22;8704;52.006;4.374;2023-05-14T11:13:38;18.80;1.00
17178;DHT22;8704;52.006;4.374;2023-05-14T11:16:08;18.70;1.00
17178;DHT22;8704;52.006;4.374;2023-05-14T11:18:39;19.20;1.00
17178;DHT22;8704;52.006;4.374;2023-05-14T11:21:07;19.20;1.00
17178;DHT22;8704;52.006;4.374;2023-05-14T11:23:35;19.30;1.00
17178;DHT22;8704;52.006;4.374;2023-05-14T11:26:04;19.40;1.00
17178;DHT22;8704;52.006;4.374;2023-05-14T11:28:32;19.30;1.00
17178;DHT22;8704;52.006;4.374;2023-05-14T11:31:01;19.60;1.00
17178;DHT22;8704;52.006;4.374;2023-05-14T11:33:31;19.70;1.00
17178;DHT22;8704;52.006;4.374;2023-05-14T11:35:59;19.80;1.00
17178;DHT22;8704;52.006;4.374;2023-05-14T11:38:27;19.60;1.00
17178;DHT22;8704;52.006;4.374;2023-05-14T11:40:55;19.90;1.00
17178;DHT22;8704;52.006;4.374;2023-05-14T11:43:24;20.20;1.00
17178;DHT22;8704;52.006;4.374;2023-05-14T11:45:55;20.50;1.00
17178;DHT22;8704;52.006;4.374;2023-05-14T11:48:24;20.70;1.00
17178;DHT22;8704;52.006;4.374;2023-05-14T11:50:52;20.60;1.00
17178;DHT22;8704;52.006;4.374;2023-05-14T11:53:25;20.90;1.00
17178;DHT22;8704;52.006;4.374;2023-05-14T11:55:53;21.20;1.00
17178;DHT22;8704;52.006;4.374;2023-05-14T11:58:23;21.30;1.00
17178;DHT22;8704;52.006;4.374;2023-05-14T12:00:52;21.20;1.00
17178;DHT22;8704;52.006;4.374;2023-05-14T12:03:23;21.50;1.00
17178;DHT22;8704;52.006;4.374;2023-05-14T12:05:56;21.50;1.00
17178;DHT22;8704;52.006;4.374;2023-05-14T12:08:25;21.40;1.00
17178;DHT22;8704;52.006;4.374;2023-05-14T12:10:54;21.50;1.00
17178;DHT22;8704;52.006;4.374;2023-05-14T12:13:26;21.60;1.00
17178;DHT22;8704;52.006;4.374;2023-05-14T12:15:57;21.70;1.00
17178;DHT22;8704;52.006;4.374;2023-05-14T12:18:29;21.90;1.00
17178;DHT22;8704;52.006;4.374;2023-05-14T12:21:01;22.00;1.00
17178;DHT22;8704;52.006;4.374;2023-05-14T12:23:31;22.00;1.00
17178;DHT22;8704;52.006;4.374;2023-05-14T12:26:01;22.20;1.00
17178;DHT22;8704;52.006;4.374;2023-05-14T12:28:32;22.30;1.00
17178;DHT22;8704;52.006;4.374;2023-05-14T12:31:04;22.20;1.00
17178;DHT22;8704;52.006;4.374;2023-05-14T12:33:33;22.10;1.00
17178;DHT22;8704;52.006;4.374;2023-05-14T12:36:01;22.30;1.00
17178;DHT22;8704;52.006;4.374;2023-05-14T12:38:32;22.50;1.00
17178;DHT22;8704;52.006;4.374;2023-05-14T12:41:00;22.40;1.00
17178;DHT22;8704;52.006;4.374;2023-05-14T12:43:28;22.20;1.00
17178;DHT22;8704;52.006;4.374;2023-05-14T12:45:57;22.50;1.00
17178;DHT22;8704;52.006;4.374;2023-05-14T12:48:25;22.60;1.00
17178;DHT22;8704;52.006;4.374;2023-05-14T12:50:55;22.50;1.00
17178;DHT22;8704;52.006;4.374;2023-05-14T12:53:23;22.10;1.00
17178;DHT22;8704;52.006;4.374;2023-05-14T12:55:51;21.90;1.00
17178;DHT22;8704;52.006;4.374;2023-05-14T12:58:18;22.20;1.00
17178;DHT22;8704;52.006;4.374;2023-05-14T13:00:46;22.10;1.00
17178;DHT22;8704;52.006;4.374;2023-05-14T13:03:14;22.00;1.00
17178;DHT22;8704;52.006;4.374;2023-05-14T13:05:42;22.10;1.00
17178;DHT22;8704;52.006;4.374;2023-05-14T13:08:12;22.20;1.00
17178;DHT22;8704;52.006;4.374;2023-05-14T13:10:43;22.30;1.00
17178;DHT22;8704;52.006;4.374;2023-05-14T13:13:11;22.20;1.00
17178;DHT22;8704;52.006;4.374;2023-05-14T13:15:40;22.20;1.00
17178;DHT22;8704;52.006;4.374;2023-05-14T13:18:08;22.10;1.00
17178;DHT22;8704;52.006;4.374;2023-05-14T13:20:36;21.50;1.00
17178;DHT22;8704;52.006;4.374;2023-05-14T13:23:06;21.90;1.00
17178;DHT22;8704;52.006;4.374;2023-05-14T13:25:35;22.20;1.00
17178;DHT22;8704;52.006;4.374;2023-05-14T13:28:04;22.20;1.00
17178;DHT22;8704;52.006;4.374;2023-05-14T13:30:31;22.40;1.00
17178;DHT22;8704;52.006;4.374;2023-05-14T13:32:59;21.60;1.00
17178;DHT22;8704;52.006;4.374;2023-05-14T13:35:28;22.00;1.00
17178;DHT22;8704;52.006;4.374;2023-05-14T13:37:56;21.50;1.00
17178;DHT22;8704;52.006;4.374;2023-05-14T13:40:23;21.70;1.00
17178;DHT22;8704;52.006;4.374;2023-05-14T13:42:53;21.80;1.00
17178;DHT22;8704;52.006;4.374;2023-05-14T13:45:21;21.40;1.00
17178;DHT22;8704;52.006;4.374;2023-05-14T13:47:49;21.70;1.00
17178;DHT22;8704;52.006;4.374;2023-05-14T13:50:17;21.80;1.00
17178;DHT22;8704;52.006;4.374;2023-05-14T13:52:47;21.70;1.00
17178;DHT22;8704;52.006;4.374;2023-05-14T13:55:15;21.80;1.00
17178;DHT22;8704;52.006;4.374;2023-05-14T13:57:43;21.60;1.00
17178;DHT22;8704;52.006;4.374;2023-05-14T14:00:13;21.50;1.00
17178;DHT22;8704;52.006;4.374;2023-05-14T14:02:41;20.90;1.00
17178;DHT22;8704;52.006;4.374;2023-05-14T14:05:09;21.50;1.00
17178;DHT22;8704;52.006;4.374;2023-05-14T14:07:37;21.20;1.00
17178;DHT22;8704;52.006;4.374;2023-05-14T14:10:07;20.80;1.00
17178;DHT22;8704;52.006;4.374;2023-05-14T14:12:35;21.50;1.00
17178;DHT22;8704;52.006;4.374;2023-05-14T14:15:04;21.50;1.00
17178;DHT22;8704;52.006;4.374;2023-05-14T14:17:34;21.40;1.00
17178;DHT22;8704;52.006;4.374;2023-05-14T14:20:02;21.50;1.00
17178;DHT22;8704;52.006;4.374;2023-05-14T14:22:32;21.50;1.00
17178;DHT22;8704;52.006;4.374;2023-05-14T14:25:00;21.60;1.00
17178;DHT22;8704;52.006;4.374;2023-05-14T14:27:28;21.00;1.00
17178;DHT22;8704;52.006;4.374;2023-05-14T14:29:56;20.70;1.00
17178;DHT22;8704;52.006;4.374;2023-05-14T14:32:24;20.60;1.00
17178;DHT22;8704;52.006;4.374;2023-05-14T14:34:54;21.00;1.00
17178;DHT22;8704;52.006;4.374;2023-05-14T14:37:21;21.00;1.00
17178;DHT22;8704;52.006;4.374;2023-05-14T14:39:49;21.20;1.00
17178;DHT22;8704;52.006;4.374;2023-05-14T14:42:17;21.90;1.00
17178;DHT22;8704;52.006;4.374;2023-05-14T14:44:45;21.50;1.00
17178;DHT22;8704;52.006;4.374;2023-05-14T14:47:13;21.90;1.00
17178;DHT22;8704;52.006;4.374;2023-05-14T14:49:41;21.80;1.00
17178;DHT22;8704;52.006;4.374;2023-05-14T14:52:11;21.30;1.00
17178;DHT22;8704;52.006;4.374;2023-05-14T14:54:38;20.80;1.00
17178;DHT22;8704;52.006;4.374;2023-05-14T14:57:06;21.40;1.00
17178;DHT22;8704;52.006;4.374;2023-05-14T14:59:34;21.50;1.00
17178;DHT22;8704;52.006;4.374;2023-05-14T15:02:02;21.60;1.00
17178;DHT22;8704;52.006;4.374;2023-05-14T15:04:30;21.10;1.00
17178;DHT22;8704;52.006;4.374;2023-05-14T15:07:00;22.00;1.00
17178;DHT22;8704;52.006;4.374;2023-05-14T15:09:30;22.10;1.00
17178;DHT22;8704;52.006;4.374;2023-05-14T15:11:58;22.30;1.00
17178;DHT22;8704;52.006;4.374;2023-05-14T15:14:26;22.00;1.00
17178;DHT22;8704;52.006;4.374;2023-05-14T15:16:54;22.60;1.00
17178;DHT22;8704;52.006;4.374;2023-05-14T15:19:22;22.40;1.00
17178;DHT22;8704;52.006;4.374;2023-05-14T15:21:50;22.70;1.00
17178;DHT22;8704;52.006;4.374;2023-05-14T15:24:18;22.20;1.00
17178;DHT22;8704;52.006;4.374;2023-05-14T15:26:47;21.90;1.00
17178;DHT22;8704;52.006;4.374;2023-05-14T15:29:19;22.00;1.00
17178;DHT22;8704;52.006;4.374;2023-05-14T15:31:47;22.40;1.00
17178;DHT22;8704;52.006;4.374;2023-05-14T15:34:16;22.80;1.00
17178;DHT22;8704;52.006;4.374;2023-05-14T15:36:43;22.50;1.00
17178;DHT22;8704;52.006;4.374;2023-05-14T15:39:11;22.40;1.00
17178;DHT22;8704;52.006;4.374;2023-05-14T15:41:39;22.00;1.00
17178;DHT22;8704;52.006;4.374;2023-05-14T15:44:09;22.00;1.00
17178;DHT22;8704;52.006;4.374;2023-05-14T15:46:36;21.90;1.00
17178;DHT22;8704;52.006;4.374;2023-05-14T15:49:04;22.50;1.00
17178;DHT22;8704;52.006;4.374;2023-05-14T15:51:33;22.80;1.00
17178;DHT22;8704;52.006;4.374;2023-05-14T15:54:01;22.30;1.00
17178;DHT22;8704;52.006;4.374;2023-05-14T15:56:29;21.80;1.00
17178;DHT22;8704;52.006;4.374;2023-05-14T15:58:57;21.30;1.00
17178;DHT22;8704;52.006;4.374;2023-05-14T16:01:27;20.90;1.00
17178;DHT22;8704;52.006;4.374;2023-05-14T16:03:55;20.70;1.00